createdAt,value
2022-12-13T00:00:46.994Z,46.70
2022-12-13T00:03:13.529Z,46.60
2022-12-13T00:05:44.182Z,46.70
2022-12-13T00:08:10.763Z,46.60
2022-12-13T00:10:37.367Z,46.60
2022-12-13T00:13:04.556Z,46.60
2022-12-13T00:15:31.294Z,46.70
2022-12-13T00:17:57.839Z,46.70
2022-12-13T00:20:24.459Z,46.70
2022-12-13T00:22:51.698Z,46.70
2022-12-13T00:25:20.551Z,46.70
2022-12-13T00:27:47.496Z,46.60
2022-12-13T00:30:14.197Z,46.60
2022-12-13T00:32:40.820Z,46.60
2022-12-13T00:35:07.641Z,46.60
2022-12-13T00:37:34.305Z,46.50
2022-12-13T00:40:00.966Z,46.50
2022-12-13T00:42:27.620Z,46.60
2022-12-13T00:44:54.437Z,46.50
2022-12-13T00:47:22.382Z,46.60
2022-12-13T00:49:49.124Z,46.50
2022-12-13T00:52:15.802Z,46.50
2022-12-13T00:54:42.439Z,46.40
2022-12-13T00:57:09.093Z,46.50
2022-12-13T00:59:35.768Z,46.50
2022-12-13T01:02:02.418Z,46.50
2022-12-13T01:04:29.060Z,46.50
2022-12-13T01:06:55.764Z,46.50
2022-12-13T01:09:23.408Z,46.50
2022-12-13T01:11:50.186Z,46.50
2022-12-13T01:14:17.384Z,46.40
2022-12-13T01:16:44.082Z,46.50
2022-12-13T01:19:10.765Z,46.50
2022-12-13T01:21:37.453Z,46.40
2022-12-13T01:24:04.446Z,46.50
2022-12-13T01:26:31.199Z,46.40
2022-12-13T01:28:57.960Z,46.40
2022-12-13T01:31:24.893Z,46.50
2022-12-13T01:33:51.738Z,46.40
2022-12-13T01:36:19.133Z,46.40
2022-12-13T01:38:45.801Z,46.40
2022-12-13T01:41:17.646Z,46.40
2022-12-13T01:43:45.123Z,46.40
2022-12-13T01:46:12.850Z,46.40
2022-12-13T01:48:40.946Z,46.40
2022-12-13T01:51:08.372Z,46.40
2022-12-13T01:53:35.406Z,46.40
2022-12-13T01:56:03.695Z,46.30
2022-12-13T01:58:30.348Z,46.40
2022-12-13T02:00:58.063Z,46.30
2022-12-13T02:03:24.716Z,46.30
2022-12-13T02:05:57.559Z,46.30
2022-12-13T02:08:27.635Z,46.20
2022-12-13T02:10:54.386Z,46.30
2022-12-13T02:13:21.067Z,46.20
2022-12-13T02:15:47.795Z,46.20
2022-12-13T02:18:18.275Z,46.30
2022-12-13T02:20:51.231Z,46.30
2022-12-13T02:23:27.179Z,46.30
2022-12-13T02:25:53.900Z,46.90
2022-12-13T02:28:31.714Z,46.20
2022-12-13T02:31:02.885Z,46.20
2022-12-13T02:33:32.980Z,46.20
2022-12-13T02:36:08.933Z,46.20
2022-12-13T02:38:54.531Z,46.20
2022-12-13T02:41:27.483Z,46.30
2022-12-13T02:43:54.150Z,46.20
2022-12-13T02:46:29.066Z,46.10
2022-12-13T02:48:55.814Z,46.70
2022-12-13T02:51:22.519Z,46.10
2022-12-13T02:53:49.199Z,46.10
2022-12-13T02:56:15.887Z,46.10
2022-12-13T02:58:46.123Z,46.20
2022-12-13T03:01:29.097Z,46.00
2022-12-13T03:04:02.652Z,46.00
2022-12-13T03:06:35.399Z,46.10
2022-12-13T03:09:17.415Z,46.00
2022-12-13T03:12:02.804Z,46.10
2022-12-13T03:14:31.826Z,46.00
2022-12-13T03:16:58.669Z,46.00
2022-12-13T03:19:25.334Z,46.00
2022-12-13T03:21:52.039Z,46.10
2022-12-13T03:24:19.619Z,46.00
2022-12-13T03:26:46.312Z,46.00
2022-12-13T03:29:13.016Z,46.00
2022-12-13T03:31:39.787Z,46.00
2022-12-13T03:34:06.500Z,46.00
2022-12-13T03:36:33.240Z,46.00
2022-12-13T03:38:59.910Z,46.00
2022-12-13T03:41:32.935Z,46.00
2022-12-13T03:44:00.174Z,46.20
2022-12-13T03:46:26.999Z,46.00
2022-12-13T03:48:53.765Z,45.90
2022-12-13T03:51:20.538Z,46.00
2022-12-13T03:53:47.258Z,46.00
2022-12-13T03:56:14.005Z,45.90
2022-12-13T03:58:42.298Z,46.00
2022-12-13T04:01:09.757Z,46.00
2022-12-13T04:03:36.657Z,46.00
2022-12-13T04:06:03.717Z,45.90
2022-12-13T04:08:30.446Z,46.00
2022-12-13T04:10:57.154Z,46.00
2022-12-13T04:13:33.097Z,45.80
2022-12-13T04:16:00.269Z,45.90
2022-12-13T04:18:27.163Z,45.90
2022-12-13T04:20:53.852Z,45.90
2022-12-13T04:23:20.563Z,45.90
2022-12-13T04:25:47.216Z,45.80
2022-12-13T04:28:21.804Z,45.90
2022-12-13T04:30:53.979Z,45.80
2022-12-13T04:33:24.196Z,45.80
2022-12-13T04:35:51.312Z,45.90
2022-12-13T04:38:18.122Z,45.80
2022-12-13T04:40:44.813Z,45.80
2022-12-13T04:43:11.635Z,45.70
2022-12-13T04:45:38.392Z,45.80
2022-12-13T04:48:05.360Z,45.70
2022-12-13T04:50:32.092Z,45.80
2022-12-13T04:52:58.833Z,45.70
2022-12-13T04:55:25.559Z,45.80
2022-12-13T04:57:52.303Z,45.70
2022-12-13T05:00:20.355Z,45.70
2022-12-13T05:02:47.180Z,45.70
2022-12-13T05:05:15.130Z,45.80
2022-12-13T05:07:43.020Z,45.70
2022-12-13T05:10:10.603Z,45.70
2022-12-13T05:12:37.313Z,45.70
2022-12-13T05:15:04.193Z,45.70
2022-12-13T05:17:30.897Z,45.70
2022-12-13T05:19:57.583Z,45.70
2022-12-13T05:22:24.263Z,45.60
2022-12-13T05:24:50.949Z,45.60
2022-12-13T05:27:24.483Z,45.60
2022-12-13T05:30:03.536Z,45.60
2022-12-13T05:32:43.487Z,45.70
2022-12-13T05:35:23.144Z,45.60
2022-12-13T05:37:53.466Z,45.70
2022-12-13T05:40:21.497Z,45.60
2022-12-13T05:42:48.180Z,45.70
2022-12-13T05:45:15.063Z,45.70
2022-12-13T05:47:41.963Z,45.70
2022-12-13T05:50:08.761Z,45.70
2022-12-13T05:52:35.505Z,45.60
2022-12-13T05:55:02.285Z,45.70
2022-12-13T05:57:28.980Z,45.70
2022-12-13T05:59:55.886Z,45.60
2022-12-13T06:02:24.435Z,46.40
2022-12-13T06:04:51.245Z,45.60
2022-12-13T06:07:17.896Z,45.70
2022-12-13T06:09:44.680Z,45.70
2022-12-13T06:12:31.076Z,45.30
2022-12-13T06:15:12.273Z,45.40
2022-12-13T06:17:44.734Z,45.80
2022-12-13T06:20:23.535Z,45.90
2022-12-13T06:22:51.879Z,46.00
2022-12-13T06:25:31.365Z,45.70
2022-12-13T06:28:00.829Z,45.30
2022-12-13T06:30:31.673Z,45.70
2022-12-13T06:32:58.514Z,45.80
2022-12-13T06:35:28.642Z,45.80
2022-12-13T06:38:01.252Z,45.90
2022-12-13T06:40:29.043Z,45.80
2022-12-13T06:42:55.726Z,45.90
2022-12-13T06:45:22.485Z,45.80
2022-12-13T06:47:49.159Z,45.80
2022-12-13T06:50:15.875Z,45.70
2022-12-13T06:52:42.566Z,45.80
2022-12-13T06:55:09.567Z,45.80
2022-12-13T06:57:36.292Z,45.70
2022-12-13T07:00:05.052Z,45.70
2022-12-13T07:02:32.697Z,45.70
2022-12-13T07:04:59.582Z,45.80
2022-12-13T07:07:26.402Z,45.70
2022-12-13T07:09:53.211Z,45.60
2022-12-13T07:12:21.092Z,45.70
2022-12-13T07:14:47.948Z,45.80
2022-12-13T07:17:32.407Z,45.70
2022-12-13T07:20:04.925Z,45.70
2022-12-13T07:22:35.226Z,45.70
2022-12-13T07:25:03.580Z,45.70
2022-12-13T07:27:30.247Z,45.70
2022-12-13T07:29:58.022Z,45.70
2022-12-13T07:32:24.836Z,45.70
2022-12-13T07:34:51.499Z,45.70
2022-12-13T07:37:30.496Z,45.70
2022-12-13T07:40:03.344Z,45.70
2022-12-13T07:42:30.728Z,45.60
2022-12-13T07:44:57.328Z,45.60
2022-12-13T07:47:23.910Z,45.60
2022-12-13T07:49:50.471Z,45.60
2022-12-13T07:52:17.037Z,45.60
2022-12-13T07:54:43.618Z,45.50
2022-12-13T07:57:10.203Z,45.60
2022-12-13T07:59:36.781Z,45.40
2022-12-13T08:02:03.396Z,45.60
2022-12-13T08:04:37.394Z,45.50
2022-12-13T08:07:09.106Z,45.50
2022-12-13T08:09:35.823Z,45.60
2022-12-13T08:12:02.426Z,45.50
2022-12-13T08:14:29.004Z,45.50
2022-12-13T08:16:55.628Z,45.40
2022-12-13T08:19:22.266Z,45.50
2022-12-13T08:21:58.410Z,45.40
2022-12-13T08:24:28.404Z,45.50
2022-12-13T08:26:55.474Z,45.40
2022-12-13T08:29:23.552Z,45.40
2022-12-13T08:32:04.107Z,45.40
2022-12-13T08:34:31.703Z,45.40
2022-12-13T08:37:02.065Z,45.30
2022-12-13T08:39:34.631Z,45.40
2022-12-13T08:42:15.433Z,45.30
2022-12-13T08:44:44.512Z,45.40
2022-12-13T08:47:11.096Z,45.30
2022-12-13T08:49:37.668Z,45.40
2022-12-13T08:52:04.294Z,45.30
2022-12-13T08:54:32.876Z,45.30
2022-12-13T08:56:59.532Z,45.30
2022-12-13T08:59:26.618Z,45.30
2022-12-13T09:01:53.965Z,45.30
2022-12-13T09:04:31.345Z,45.30
2022-12-13T09:07:01.282Z,45.20
2022-12-13T09:09:29.105Z,45.30
2022-12-13T09:11:59.527Z,45.20
2022-12-13T09:14:34.268Z,45.20
2022-12-13T09:17:03.144Z,45.30
2022-12-13T09:19:36.723Z,45.20
2022-12-13T09:22:04.196Z,45.10
2022-12-13T09:24:36.165Z,45.20
2022-12-13T09:27:04.027Z,45.10
2022-12-13T09:29:36.394Z,45.10
2022-12-13T09:32:03.220Z,45.10
2022-12-13T09:34:29.970Z,45.10
2022-12-13T09:37:01.571Z,45.10
2022-12-13T09:39:28.961Z,45.20
2022-12-13T09:42:00.677Z,45.10
2022-12-13T09:44:43.936Z,45.20
2022-12-13T09:47:22.831Z,45.20
2022-12-13T09:49:53.104Z,45.20
2022-12-13T09:52:21.269Z,45.10
2022-12-13T09:54:49.473Z,45.10
2022-12-13T09:57:32.521Z,45.10
2022-12-13T10:00:01.655Z,45.20
2022-12-13T10:02:29.262Z,45.20
2022-12-13T10:05:22.650Z,45.10
2022-12-13T10:07:49.985Z,45.10
2022-12-13T10:10:16.655Z,45.10
2022-12-13T10:12:43.417Z,45.10
2022-12-13T10:15:11.416Z,45.10
2022-12-13T10:17:38.658Z,45.10
2022-12-13T10:20:05.639Z,45.10
2022-12-13T10:22:32.228Z,45.10
2022-12-13T10:25:00.812Z,45.10
2022-12-13T10:27:28.093Z,45.10
2022-12-13T10:30:03.810Z,45.10
2022-12-13T10:32:30.688Z,45.10
2022-12-13T10:35:23.213Z,45.10
2022-12-13T10:37:49.844Z,45.10
2022-12-13T10:40:46.733Z,45.00
2022-12-13T10:43:14.219Z,45.10
2022-12-13T10:45:41.616Z,45.10
2022-12-13T10:48:18.565Z,45.10
2022-12-13T10:50:45.636Z,45.10
2022-12-13T10:53:14.599Z,45.10
2022-12-13T10:55:41.301Z,45.10
2022-12-13T10:58:09.515Z,45.10
2022-12-13T11:00:45.084Z,45.10
2022-12-13T11:03:31.363Z,45.10
2022-12-13T11:06:13.931Z,45.00
2022-12-13T11:08:41.516Z,45.10
2022-12-13T11:11:08.206Z,45.00
2022-12-13T11:13:53.696Z,45.10
2022-12-13T11:16:39.476Z,45.10
2022-12-13T11:19:08.674Z,45.10
2022-12-13T11:21:36.741Z,45.10
2022-12-13T11:24:04.264Z,45.00
2022-12-13T11:26:31.679Z,45.10
2022-12-13T11:29:17.175Z,45.00
2022-12-13T11:32:04.057Z,45.00
2022-12-13T11:34:44.124Z,45.00
2022-12-13T11:37:31.030Z,45.00
2022-12-13T11:40:01.267Z,45.00
2022-12-13T11:42:55.696Z,45.10
2022-12-13T11:45:24.531Z,45.00
2022-12-13T11:47:58.271Z,45.00
2022-12-13T11:50:35.567Z,45.00
2022-12-13T11:53:23.222Z,45.00
2022-12-13T11:55:53.274Z,45.10
2022-12-13T12:01:18.212Z,45.00
2022-12-13T12:03:49.437Z,45.00
2022-12-13T12:06:22.760Z,45.00
2022-12-13T12:09:05.425Z,45.10
2022-12-13T12:11:32.594Z,45.00
2022-12-13T12:14:00.815Z,45.00
2022-12-13T12:16:47.664Z,45.00
2022-12-13T12:19:15.207Z,45.00
2022-12-13T12:22:13.885Z,44.90
2022-12-13T12:24:41.377Z,45.00
2022-12-13T12:27:14.074Z,45.00
2022-12-13T12:29:55.686Z,45.00
2022-12-13T12:32:26.817Z,45.00
2022-12-13T12:34:53.509Z,45.00
2022-12-13T12:37:35.442Z,45.00
2022-12-13T12:40:18.747Z,45.00
2022-12-13T12:43:13.825Z,45.00
2022-12-13T12:45:56.403Z,45.00
2022-12-13T12:48:53.761Z,45.00
2022-12-13T12:51:28.498Z,45.00
2022-12-13T12:53:59.759Z,45.00
2022-12-13T12:56:55.786Z,45.00
2022-12-13T12:59:25.391Z,45.00
2022-12-13T13:02:10.175Z,45.00
2022-12-13T13:04:39.235Z,45.00
2022-12-13T13:07:22.876Z,45.00
2022-12-13T13:09:51.072Z,45.00
2022-12-13T13:12:29.052Z,45.00
2022-12-13T13:14:57.180Z,45.00
2022-12-13T13:17:23.756Z,44.90
2022-12-13T13:20:07.825Z,45.00
2022-12-13T13:22:44.344Z,45.00
2022-12-13T13:25:12.364Z,45.00
2022-12-13T13:27:48.174Z,45.00
2022-12-13T13:30:19.477Z,45.00
2022-12-13T13:32:46.091Z,45.00
2022-12-13T13:35:36.041Z,44.90
2022-12-13T13:38:06.074Z,45.00
2022-12-13T13:40:34.413Z,45.00
2022-12-13T13:43:02.190Z,45.00
2022-12-13T13:45:28.942Z,45.00
2022-12-13T13:48:16.950Z,44.90
2022-12-13T13:50:49.672Z,45.00
2022-12-13T13:53:28.609Z,45.00
2022-12-13T13:56:00.164Z,45.00
2022-12-13T13:58:47.036Z,45.00
2022-12-13T14:01:32.480Z,45.00
2022-12-13T14:04:02.143Z,45.00
2022-12-13T14:06:28.809Z,45.10
2022-12-13T14:09:04.559Z,44.80
2022-12-13T14:11:41.932Z,44.90
2022-12-13T14:14:41.041Z,44.90
2022-12-13T14:17:23.037Z,44.80
2022-12-13T14:20:10.051Z,44.40
2022-12-13T14:22:36.664Z,44.40
2022-12-13T14:25:03.851Z,44.70
2022-12-13T14:27:33.545Z,44.80
2022-12-13T14:30:00.144Z,44.70
2022-12-13T14:32:28.179Z,44.70
2022-12-13T14:34:58.034Z,44.80
2022-12-13T14:37:27.924Z,44.90
2022-12-13T14:39:54.615Z,44.80
2022-12-13T14:42:33.779Z,44.80
2022-12-13T14:45:13.547Z,44.90
2022-12-13T14:47:40.693Z,44.90
2022-12-13T14:50:07.489Z,44.90
2022-12-13T14:52:35.674Z,44.90
2022-12-13T14:55:04.676Z,44.90
2022-12-13T14:57:32.038Z,45.00
2022-12-13T15:00:01.262Z,45.00
2022-12-13T15:02:30.095Z,45.00
2022-12-13T15:04:59.023Z,45.30
2022-12-13T15:07:27.434Z,45.00
2022-12-13T15:09:57.753Z,45.00
2022-12-13T15:12:25.914Z,45.00
2022-12-13T15:15:02.770Z,45.00
2022-12-13T15:17:33.649Z,44.90
2022-12-13T15:20:00.661Z,45.00
2022-12-13T15:22:29.330Z,44.90
2022-12-13T15:24:56.538Z,45.00
2022-12-13T15:27:24.381Z,45.00
2022-12-13T15:29:51.216Z,45.00
2022-12-13T15:32:23.071Z,45.00
2022-12-13T15:34:50.264Z,45.00
2022-12-13T15:37:28.118Z,45.00
2022-12-13T15:39:57.528Z,45.00
2022-12-13T15:42:33.800Z,45.10
2022-12-13T15:45:01.455Z,44.30
2022-12-13T15:47:29.253Z,44.60
2022-12-13T15:49:57.026Z,45.00
2022-12-13T15:52:25.024Z,44.80
2022-12-13T15:55:07.077Z,44.70
2022-12-13T15:57:53.868Z,44.70
2022-12-13T16:00:30.842Z,44.80
2022-12-13T16:03:01.739Z,44.90
2022-12-13T16:05:36.741Z,44.80
2022-12-13T16:08:14.375Z,44.90
2022-12-13T16:10:46.033Z,44.80
2022-12-13T16:13:25.770Z,44.90
2022-12-13T16:16:26.697Z,44.80
2022-12-13T16:19:00.796Z,44.90
2022-12-13T16:21:27.797Z,45.00
2022-12-13T16:23:54.553Z,44.90
2022-12-13T16:26:26.122Z,45.00
2022-12-13T16:28:53.475Z,44.90
2022-12-13T16:31:23.873Z,44.90
2022-12-13T16:33:50.963Z,44.90
2022-12-13T16:36:17.768Z,45.00
2022-12-13T16:38:44.651Z,45.00
2022-12-13T16:41:11.488Z,44.90
2022-12-13T16:43:39.710Z,45.10
2022-12-13T16:47:09.995Z,44.80
2022-12-13T16:48:54.036Z,45.10
2022-12-13T16:51:21.244Z,45.10
2022-12-13T16:53:48.865Z,45.10
2022-12-13T16:56:21.600Z,45.10
2022-12-13T16:58:50.492Z,45.00
2022-12-13T17:01:19.992Z,45.10
2022-12-13T17:03:47.665Z,45.00
2022-12-13T17:06:14.780Z,45.10
2022-12-13T17:08:42.620Z,45.00
2022-12-13T17:11:16.129Z,45.10
2022-12-13T17:13:46.417Z,45.10
2022-12-13T17:16:14.639Z,45.00
2022-12-13T17:18:42.072Z,45.20
2022-12-13T17:21:09.938Z,45.10
2022-12-13T17:23:38.266Z,45.10
2022-12-13T17:26:05.967Z,45.10
2022-12-13T17:28:34.576Z,44.80
2022-12-13T17:31:07.936Z,45.10
2022-12-13T17:33:35.064Z,45.60
2022-12-13T17:36:03.301Z,45.20
2022-12-13T17:38:30.296Z,46.20
2022-12-13T17:40:57.068Z,46.40
2022-12-13T17:43:33.025Z,46.20
2022-12-13T17:46:03.448Z,46.50
2022-12-13T17:48:37.275Z,46.70
2022-12-13T17:51:08.373Z,46.90
2022-12-13T17:53:36.068Z,47.20
2022-12-13T17:56:04.131Z,47.40
2022-12-13T17:58:32.429Z,47.40
2022-12-13T18:00:59.684Z,47.50
2022-12-13T18:03:26.998Z,48.20
2022-12-13T18:06:00.022Z,47.30
2022-12-13T18:08:26.837Z,47.40
2022-12-13T18:11:23.492Z,47.00
2022-12-13T18:13:41.457Z,47.30
2022-12-13T18:16:09.320Z,47.30
2022-12-13T18:18:36.081Z,47.30
2022-12-13T18:21:03.966Z,47.10
2022-12-13T18:23:30.985Z,47.60
2022-12-13T18:26:02.500Z,47.00
2022-12-13T18:28:29.313Z,46.90
2022-12-13T18:30:59.349Z,46.90
2022-12-13T18:33:26.813Z,46.80
2022-12-13T18:35:54.464Z,46.80
2022-12-13T18:38:23.575Z,46.70
2022-12-13T18:40:50.767Z,46.50
2022-12-13T18:43:18.437Z,46.70
2022-12-13T18:45:45.406Z,46.60
2022-12-13T18:48:13.035Z,46.60
2022-12-13T18:50:42.999Z,46.50
2022-12-13T18:53:14.142Z,46.60
2022-12-13T18:55:41.110Z,46.50
2022-12-13T18:58:08.111Z,46.40
2022-12-13T19:00:36.785Z,46.50
2022-12-13T19:03:03.879Z,46.40
2022-12-13T19:05:30.908Z,46.40
2022-12-13T19:07:58.812Z,46.30
2022-12-13T19:10:26.869Z,46.30
2022-12-13T19:12:53.886Z,46.20
2022-12-13T19:15:21.039Z,46.50
2022-12-13T19:17:48.248Z,46.40
2022-12-13T19:20:15.853Z,46.40
2022-12-13T19:22:42.797Z,46.40
2022-12-13T19:25:10.022Z,46.50
2022-12-13T19:27:37.045Z,46.50
2022-12-13T19:30:03.909Z,46.60
2022-12-13T19:32:30.620Z,46.60
2022-12-13T19:34:59.053Z,46.60
2022-12-13T19:37:25.829Z,46.80
2022-12-13T19:39:52.595Z,46.60
2022-12-13T19:42:19.303Z,46.90
2022-12-13T19:44:46.151Z,46.80
2022-12-13T19:47:12.926Z,46.80
2022-12-13T19:49:39.851Z,47.00
2022-12-13T19:52:07.262Z,46.80
2022-12-13T19:54:33.979Z,47.00
2022-12-13T19:57:06.902Z,46.90
2022-12-13T19:59:33.983Z,46.90
2022-12-13T20:02:00.783Z,47.10
2022-12-13T20:04:27.578Z,47.00
2022-12-13T20:06:54.285Z,47.10
2022-12-13T20:09:21.045Z,47.10
2022-12-13T20:11:47.938Z,47.10
2022-12-13T20:14:14.643Z,47.20
2022-12-13T20:16:42.747Z,47.10
2022-12-13T20:19:09.542Z,47.10
2022-12-13T20:21:36.513Z,47.00
2022-12-13T20:24:03.292Z,47.00
2022-12-13T20:26:30.225Z,47.10
2022-12-13T20:28:57.091Z,47.00
2022-12-13T20:31:33.335Z,46.90
2022-12-13T20:34:02.280Z,46.80
2022-12-13T20:36:29.246Z,46.80
2022-12-13T20:38:56.924Z,46.80
2022-12-13T20:41:24.888Z,46.70
2022-12-13T20:43:52.630Z,46.60
2022-12-13T20:46:19.448Z,46.60
2022-12-13T20:48:46.572Z,46.70
2022-12-13T20:51:14.151Z,46.50
2022-12-13T20:53:41.708Z,46.60
2022-12-13T20:56:10.815Z,46.50
2022-12-13T20:58:40.169Z,46.50
2022-12-13T21:01:07.314Z,46.40
2022-12-13T21:03:34.206Z,46.50
2022-12-13T21:06:00.946Z,46.40
2022-12-13T21:08:46.247Z,46.50
2022-12-13T21:11:25.157Z,46.40
2022-12-13T21:13:52.898Z,46.40
2022-12-13T21:16:19.760Z,46.30
2022-12-13T21:18:46.483Z,46.30
2022-12-13T21:21:13.214Z,46.30
2022-12-13T21:23:39.912Z,46.30
2022-12-13T21:26:06.743Z,46.30
2022-12-13T21:28:33.687Z,46.30
2022-12-13T21:31:00.902Z,46.20
2022-12-13T21:33:28.344Z,46.30
2022-12-13T21:35:55.521Z,46.30
2022-12-13T21:38:22.285Z,46.30
2022-12-13T21:40:49.090Z,46.20
2022-12-13T21:43:16.093Z,46.30
2022-12-13T21:45:43.108Z,46.10
2022-12-13T21:48:09.804Z,46.20
2022-12-13T21:50:36.510Z,46.20
2022-12-13T21:53:04.967Z,46.10
2022-12-13T21:55:40.194Z,46.20
2022-12-13T21:58:26.846Z,46.20
2022-12-13T22:00:53.753Z,46.20
2022-12-13T22:03:26.815Z,46.10
2022-12-13T22:05:53.633Z,46.10
2022-12-13T22:08:20.300Z,46.00
2022-12-13T22:11:05.752Z,46.00
2022-12-13T22:13:32.438Z,45.90
2022-12-13T22:15:59.682Z,46.00
2022-12-13T22:18:26.601Z,46.00
2022-12-13T22:20:57.075Z,46.00
2022-12-13T22:23:23.911Z,46.00
2022-12-13T22:25:50.775Z,46.00
2022-12-13T22:28:18.938Z,45.90
2022-12-13T22:30:52.575Z,46.00
2022-12-13T22:33:19.604Z,45.90
2022-12-13T22:35:46.367Z,45.90
2022-12-13T22:38:13.069Z,45.90
2022-12-13T22:40:39.766Z,45.90
2022-12-13T22:43:06.609Z,45.90
2022-12-13T22:45:33.380Z,45.90
2022-12-13T22:48:00.094Z,46.00
2022-12-13T22:50:26.820Z,45.90
2022-12-13T22:52:53.606Z,45.90
2022-12-13T22:55:20.341Z,45.90
2022-12-13T22:57:48.547Z,45.80
2022-12-13T23:00:15.586Z,45.90
2022-12-13T23:02:42.332Z,45.90
2022-12-13T23:05:09.122Z,45.90
2022-12-13T23:07:36.380Z,45.90
2022-12-13T23:10:03.410Z,45.90
2022-12-13T23:12:48.769Z,45.90
2022-12-13T23:15:15.445Z,45.90
2022-12-13T23:17:42.145Z,45.90
2022-12-13T23:20:09.223Z,45.90
2022-12-13T23:22:35.962Z,45.90
2022-12-13T23:25:02.656Z,45.80
2022-12-13T23:27:29.337Z,45.80
2022-12-13T23:29:56.074Z,46.50
2022-12-13T23:32:23.081Z,45.90
2022-12-13T23:34:49.791Z,45.80
2022-12-13T23:37:17.668Z,45.80
2022-12-13T23:39:44.926Z,45.70
2022-12-13T23:42:11.655Z,46.40
2022-12-13T23:44:39.941Z,45.80
2022-12-13T23:47:06.623Z,45.90
2022-12-13T23:49:33.384Z,45.90
2022-12-13T23:52:00.246Z,45.80
2022-12-13T23:54:26.939Z,45.70
2022-12-13T23:56:53.792Z,45.70
2022-12-13T23:59:21.431Z,45.70
